sensor_id;sensor_type;location;lat;lon;timestamp;P1;durP1;ratioP1;P2;durP2;ratioP2
40837;SDS011;29632;49.168;9.848;2023-10-08T00:01:01;7.35;;;3.10;;
40837;SDS011;29632;49.168;9.848;2023-10-08T00:03:29;4.97;;;2.63;;
40837;SDS011;29632;49.168;9.848;2023-10-08T00:05:58;5.37;;;2.10;;
40837;SDS011;29632;49.168;9.848;2023-10-08T00:08:31;7.23;;;2.77;;
40837;SDS011;29632;49.168;9.848;2023-10-08T00:11:00;4.53;;;2.27;;
40837;SDS011;29632;49.168;9.848;2023-10-08T00:13:32;7.13;;;2.80;;
40837;SDS011;29632;49.168;9.848;2023-10-08T00:16:08;8.53;;;2.33;;
40837;SDS011;29632;49.168;9.848;2023-10-08T00:18:37;5.23;;;2.47;;
40837;SDS011;29632;49.168;9.848;2023-10-08T00:21:07;5.00;;;2.30;;
40837;SDS011;29632;49.168;9.848;2023-10-08T00:23:36;6.17;;;2.10;;
40837;SDS011;29632;49.168;9.848;2023-10-08T00:26:07;6.67;;;2.33;;
40837;SDS011;29632;49.168;9.848;2023-10-08T00:28:33;7.10;;;2.80;;
40837;SDS011;29632;49.168;9.848;2023-10-08T00:31:01;7.63;;;2.23;;
40837;SDS011;29632;49.168;9.848;2023-10-08T00:33:37;4.83;;;1.90;;
40837;SDS011;29632;49.168;9.848;2023-10-08T00:36:04;6.10;;;2.30;;
40837;SDS011;29632;49.168;9.848;2023-10-08T00:38:48;6.07;;;2.90;;
40837;SDS011;29632;49.168;9.848;2023-10-08T00:41:18;5.90;;;2.57;;
40837;SDS011;29632;49.168;9.848;2023-10-08T00:43:47;5.47;;;2.33;;
40837;SDS011;29632;49.168;9.848;2023-10-08T00:46:13;7.13;;;2.30;;
40837;SDS011;29632;49.168;9.848;2023-10-08T00:48:56;6.53;;;2.60;;
40837;SDS011;29632;49.168;9.848;2023-10-08T00:51:23;6.43;;;3.23;;
40837;SDS011;29632;49.168;9.848;2023-10-08T00:54:02;6.03;;;2.67;;
40837;SDS011;29632;49.168;9.848;2023-10-08T00:59:21;5.37;;;2.43;;
40837;SDS011;29632;49.168;9.848;2023-10-08T01:01:48;5.40;;;2.20;;
40837;SDS011;29632;49.168;9.848;2023-10-08T01:04:24;5.67;;;2.97;;
40837;SDS011;29632;49.168;9.848;2023-10-08T01:06:51;7.63;;;2.43;;
40837;SDS011;29632;49.168;9.848;2023-10-08T01:09:25;5.20;;;2.43;;
40837;SDS011;29632;49.168;9.848;2023-10-08T01:15:02;7.47;;;2.97;;
40837;SDS011;29632;49.168;9.848;2023-10-08T01:17:46;5.60;;;2.37;;
40837;SDS011;29632;49.168;9.848;2023-10-08T01:20:23;6.57;;;2.80;;
40837;SDS011;29632;49.168;9.848;2023-10-08T01:23:05;6.57;;;2.37;;
40837;SDS011;29632;49.168;9.848;2023-10-08T01:25:42;5.72;;;2.22;;
40837;SDS011;29632;49.168;9.848;2023-10-08T01:28:08;4.90;;;2.30;;
40837;SDS011;29632;49.168;9.848;2023-10-08T01:30:43;6.07;;;2.80;;
40837;SDS011;29632;49.168;9.848;2023-10-08T01:33:11;4.47;;;2.20;;
40837;SDS011;29632;49.168;9.848;2023-10-08T01:35:40;4.80;;;2.33;;
40837;SDS011;29632;49.168;9.848;2023-10-08T01:38:07;5.57;;;2.80;;
40837;SDS011;29632;49.168;9.848;2023-10-08T01:40:38;6.07;;;2.33;;
40837;SDS011;29632;49.168;9.848;2023-10-08T01:43:08;5.57;;;2.60;;
40837;SDS011;29632;49.168;9.848;2023-10-08T01:45:36;4.77;;;2.47;;
40837;SDS011;29632;49.168;9.848;2023-10-08T01:48:06;6.40;;;2.50;;
40837;SDS011;29632;49.168;9.848;2023-10-08T01:50:34;7.37;;;2.97;;
40837;SDS011;29632;49.168;9.848;2023-10-08T01:53:03;4.87;;;2.20;;
40837;SDS011;29632;49.168;9.848;2023-10-08T01:55:35;4.37;;;1.90;;
40837;SDS011;29632;49.168;9.848;2023-10-08T01:58:12;4.50;;;2.20;;
40837;SDS011;29632;49.168;9.848;2023-10-08T02:00:41;5.33;;;2.37;;
40837;SDS011;29632;49.168;9.848;2023-10-08T02:03:11;6.27;;;2.87;;
40837;SDS011;29632;49.168;9.848;2023-10-08T02:05:43;6.73;;;2.30;;
40837;SDS011;29632;49.168;9.848;2023-10-08T02:08:10;6.87;;;2.87;;
40837;SDS011;29632;49.168;9.848;2023-10-08T02:10:41;5.23;;;2.40;;
40837;SDS011;29632;49.168;9.848;2023-10-08T02:13:09;4.07;;;2.30;;
40837;SDS011;29632;49.168;9.848;2023-10-08T02:15:36;7.17;;;2.83;;
40837;SDS011;29632;49.168;9.848;2023-10-08T02:18:03;5.10;;;2.57;;
40837;SDS011;29632;49.168;9.848;2023-10-08T02:20:30;6.00;;;2.67;;
40837;SDS011;29632;49.168;9.848;2023-10-08T02:22:56;4.97;;;2.40;;
40837;SDS011;29632;49.168;9.848;2023-10-08T02:25:21;7.90;;;2.20;;
40837;SDS011;29632;49.168;9.848;2023-10-08T02:27:48;5.37;;;2.37;;
40837;SDS011;29632;49.168;9.848;2023-10-08T02:30:14;5.27;;;2.53;;
40837;SDS011;29632;49.168;9.848;2023-10-08T02:32:40;5.87;;;2.97;;
40837;SDS011;29632;49.168;9.848;2023-10-08T02:35:08;5.53;;;2.20;;
40837;SDS011;29632;49.168;9.848;2023-10-08T02:37:36;5.50;;;2.53;;
40837;SDS011;29632;49.168;9.848;2023-10-08T02:40:05;6.43;;;2.23;;
40837;SDS011;29632;49.168;9.848;2023-10-08T02:42:41;4.13;;;2.10;;
40837;SDS011;29632;49.168;9.848;2023-10-08T02:45:09;5.00;;;2.60;;
40837;SDS011;29632;49.168;9.848;2023-10-08T02:47:39;4.53;;;2.33;;
40837;SDS011;29632;49.168;9.848;2023-10-08T02:50:09;6.53;;;3.20;;
40837;SDS011;29632;49.168;9.848;2023-10-08T02:52:36;6.00;;;3.00;;
40837;SDS011;29632;49.168;9.848;2023-10-08T02:55:02;5.57;;;2.27;;
40837;SDS011;29632;49.168;9.848;2023-10-08T02:57:28;4.73;;;2.17;;
40837;SDS011;29632;49.168;9.848;2023-10-08T02:59:55;3.73;;;2.10;;
40837;SDS011;29632;49.168;9.848;2023-10-08T03:02:21;3.97;;;2.27;;
40837;SDS011;29632;49.168;9.848;2023-10-08T03:04:47;7.60;;;2.40;;
40837;SDS011;29632;49.168;9.848;2023-10-08T03:07:17;3.83;;;2.20;;
40837;SDS011;29632;49.168;9.848;2023-10-08T03:09:50;5.23;;;2.30;;
40837;SDS011;29632;49.168;9.848;2023-10-08T03:12:28;8.40;;;3.00;;
40837;SDS011;29632;49.168;9.848;2023-10-08T03:14:57;6.73;;;2.93;;
40837;SDS011;29632;49.168;9.848;2023-10-08T03:17:36;5.45;;;2.47;;
40837;SDS011;29632;49.168;9.848;2023-10-08T03:20:02;7.00;;;2.53;;
40837;SDS011;29632;49.168;9.848;2023-10-08T03:22:47;6.53;;;2.87;;
40837;SDS011;29632;49.168;9.848;2023-10-08T03:25:14;7.03;;;2.50;;
40837;SDS011;29632;49.168;9.848;2023-10-08T03:27:41;4.33;;;2.47;;
40837;SDS011;29632;49.168;9.848;2023-10-08T03:30:07;4.93;;;2.73;;
40837;SDS011;29632;49.168;9.848;2023-10-08T03:32:39;6.00;;;3.20;;
40837;SDS011;29632;49.168;9.848;2023-10-08T03:35:20;4.90;;;2.40;;
40837;SDS011;29632;49.168;9.848;2023-10-08T03:37:53;4.33;;;2.27;;
40837;SDS011;29632;49.168;9.848;2023-10-08T03:40:19;6.20;;;2.60;;
40837;SDS011;29632;49.168;9.848;2023-10-08T03:43:07;5.43;;;2.60;;
40837;SDS011;29632;49.168;9.848;2023-10-08T03:45:45;6.83;;;2.77;;
40837;SDS011;29632;49.168;9.848;2023-10-08T03:48:18;7.10;;;3.00;;
40837;SDS011;29632;49.168;9.848;2023-10-08T03:50:47;6.20;;;2.73;;
40837;SDS011;29632;49.168;9.848;2023-10-08T03:53:21;3.60;;;1.83;;
40837;SDS011;29632;49.168;9.848;2023-10-08T03:55:48;6.00;;;2.93;;
40837;SDS011;29632;49.168;9.848;2023-10-08T03:58:17;6.80;;;2.40;;
40837;SDS011;29632;49.168;9.848;2023-10-08T04:00:57;4.93;;;2.42;;
40837;SDS011;29632;49.168;9.848;2023-10-08T04:03:35;6.57;;;3.30;;
40837;SDS011;29632;49.168;9.848;2023-10-08T04:06:17;8.70;;;3.33;;
40837;SDS011;29632;49.168;9.848;2023-10-08T04:08:50;5.83;;;2.70;;
40837;SDS011;29632;49.168;9.848;2023-10-08T04:11:34;4.00;;;2.20;;
40837;SDS011;29632;49.168;9.848;2023-10-08T04:14:04;4.93;;;2.30;;
40837;SDS011;29632;49.168;9.848;2023-10-08T04:16:31;5.57;;;2.38;;
40837;SDS011;29632;49.168;9.848;2023-10-08T04:19:02;5.50;;;2.63;;
40837;SDS011;29632;49.168;9.848;2023-10-08T04:21:29;7.03;;;2.73;;
40837;SDS011;29632;49.168;9.848;2023-10-08T04:23:58;5.83;;;2.50;;
40837;SDS011;29632;49.168;9.848;2023-10-08T04:26:28;5.68;;;2.55;;
40837;SDS011;29632;49.168;9.848;2023-10-08T04:28:57;4.60;;;2.33;;
40837;SDS011;29632;49.168;9.848;2023-10-08T04:31:31;5.90;;;2.57;;
40837;SDS011;29632;49.168;9.848;2023-10-08T04:34:08;6.87;;;2.67;;
40837;SDS011;29632;49.168;9.848;2023-10-08T04:36:45;8.10;;;3.00;;
40837;SDS011;29632;49.168;9.848;2023-10-08T04:39:14;5.63;;;2.78;;
40837;SDS011;29632;49.168;9.848;2023-10-08T04:41:46;5.27;;;2.30;;
40837;SDS011;29632;49.168;9.848;2023-10-08T04:44:20;5.33;;;2.90;;
40837;SDS011;29632;49.168;9.848;2023-10-08T04:46:47;4.57;;;2.10;;
40837;SDS011;29632;49.168;9.848;2023-10-08T04:49:16;7.03;;;3.88;;
40837;SDS011;29632;49.168;9.848;2023-10-08T04:51:53;5.40;;;2.33;;
40837;SDS011;29632;49.168;9.848;2023-10-08T04:54:25;6.17;;;2.37;;
40837;SDS011;29632;49.168;9.848;2023-10-08T04:59:27;5.60;;;3.00;;
40837;SDS011;29632;49.168;9.848;2023-10-08T05:01:59;8.67;;;3.33;;
40837;SDS011;29632;49.168;9.848;2023-10-08T05:04:46;5.37;;;2.73;;
40837;SDS011;29632;49.168;9.848;2023-10-08T05:07:17;8.07;;;2.83;;
40837;SDS011;29632;49.168;9.848;2023-10-08T05:09:51;7.10;;;3.07;;
40837;SDS011;29632;49.168;9.848;2023-10-08T05:12:35;6.60;;;2.77;;
40837;SDS011;29632;49.168;9.848;2023-10-08T05:15:03;4.60;;;2.20;;
40837;SDS011;29632;49.168;9.848;2023-10-08T05:17:39;6.43;;;2.90;;
40837;SDS011;29632;49.168;9.848;2023-10-08T05:20:19;6.50;;;3.47;;
40837;SDS011;29632;49.168;9.848;2023-10-08T05:23:09;6.13;;;2.80;;
40837;SDS011;29632;49.168;9.848;2023-10-08T05:26:01;6.77;;;2.70;;
40837;SDS011;29632;49.168;9.848;2023-10-08T05:28:35;5.93;;;2.67;;
40837;SDS011;29632;49.168;9.848;2023-10-08T05:31:22;5.67;;;2.90;;
40837;SDS011;29632;49.168;9.848;2023-10-08T05:34:08;5.37;;;2.30;;
40837;SDS011;29632;49.168;9.848;2023-10-08T05:36:43;8.47;;;3.17;;
40837;SDS011;29632;49.168;9.848;2023-10-08T05:39:35;6.03;;;2.37;;
40837;SDS011;29632;49.168;9.848;2023-10-08T05:42:07;8.03;;;2.47;;
40837;SDS011;29632;49.168;9.848;2023-10-08T05:44:45;7.67;;;3.13;;
40837;SDS011;29632;49.168;9.848;2023-10-08T05:47:30;6.47;;;2.77;;
40837;SDS011;29632;49.168;9.848;2023-10-08T05:49:56;9.43;;;4.07;;
40837;SDS011;29632;49.168;9.848;2023-10-08T05:52:41;10.07;;;8.07;;
40837;SDS011;29632;49.168;9.848;2023-10-08T05:55:23;12.07;;;6.97;;
40837;SDS011;29632;49.168;9.848;2023-10-08T05:57:59;8.90;;;6.83;;
40837;SDS011;29632;49.168;9.848;2023-10-08T06:00:41;8.50;;;4.67;;
40837;SDS011;29632;49.168;9.848;2023-10-08T06:03:30;6.97;;;3.70;;
40837;SDS011;29632;49.168;9.848;2023-10-08T06:06:13;4.67;;;2.40;;
40837;SDS011;29632;49.168;9.848;2023-10-08T06:08:40;8.03;;;2.90;;
40837;SDS011;29632;49.168;9.848;2023-10-08T06:11:25;6.63;;;3.10;;
40837;SDS011;29632;49.168;9.848;2023-10-08T06:14:09;5.57;;;2.87;;
40837;SDS011;29632;49.168;9.848;2023-10-08T06:16:41;6.33;;;2.90;;
40837;SDS011;29632;49.168;9.848;2023-10-08T06:19:12;7.17;;;3.00;;
40837;SDS011;29632;49.168;9.848;2023-10-08T06:21:39;4.20;;;2.13;;
40837;SDS011;29632;49.168;9.848;2023-10-08T06:24:07;6.83;;;3.10;;
40837;SDS011;29632;49.168;9.848;2023-10-08T06:26:35;5.97;;;2.20;;
40837;SDS011;29632;49.168;9.848;2023-10-08T06:29:10;7.13;;;3.00;;
40837;SDS011;29632;49.168;9.848;2023-10-08T06:31:44;6.43;;;2.73;;
40837;SDS011;29632;49.168;9.848;2023-10-08T06:34:16;6.27;;;3.57;;
40837;SDS011;29632;49.168;9.848;2023-10-08T06:36:46;4.90;;;2.78;;
40837;SDS011;29632;49.168;9.848;2023-10-08T06:39:13;6.47;;;2.67;;
40837;SDS011;29632;49.168;9.848;2023-10-08T06:41:44;6.83;;;3.13;;
40837;SDS011;29632;49.168;9.848;2023-10-08T06:44:11;7.03;;;2.63;;
40837;SDS011;29632;49.168;9.848;2023-10-08T06:46:40;6.53;;;2.53;;
40837;SDS011;29632;49.168;9.848;2023-10-08T06:49:07;8.60;;;3.60;;
40837;SDS011;29632;49.168;9.848;2023-10-08T06:51:37;6.87;;;4.07;;
40837;SDS011;29632;49.168;9.848;2023-10-08T06:54:04;5.87;;;3.93;;
40837;SDS011;29632;49.168;9.848;2023-10-08T06:56:34;6.23;;;3.10;;
40837;SDS011;29632;49.168;9.848;2023-10-08T06:59:00;7.13;;;3.07;;
40837;SDS011;29632;49.168;9.848;2023-10-08T07:01:26;6.27;;;3.60;;
40837;SDS011;29632;49.168;9.848;2023-10-08T07:04:04;7.67;;;3.37;;
40837;SDS011;29632;49.168;9.848;2023-10-08T07:06:32;5.97;;;2.63;;
40837;SDS011;29632;49.168;9.848;2023-10-08T07:08:59;6.37;;;2.87;;
40837;SDS011;29632;49.168;9.848;2023-10-08T07:11:30;6.67;;;3.40;;
40837;SDS011;29632;49.168;9.848;2023-10-08T07:14:02;6.20;;;3.20;;
40837;SDS011;29632;49.168;9.848;2023-10-08T07:16:29;5.53;;;3.03;;
40837;SDS011;29632;49.168;9.848;2023-10-08T07:18:58;5.70;;;2.50;;
40837;SDS011;29632;49.168;9.848;2023-10-08T07:21:41;6.40;;;3.03;;
40837;SDS011;29632;49.168;9.848;2023-10-08T07:24:13;4.63;;;2.50;;
40837;SDS011;29632;49.168;9.848;2023-10-08T07:26:46;6.00;;;2.80;;
40837;SDS011;29632;49.168;9.848;2023-10-08T07:29:13;10.50;;;3.70;;
40837;SDS011;29632;49.168;9.848;2023-10-08T07:31:44;4.93;;;2.80;;
40837;SDS011;29632;49.168;9.848;2023-10-08T07:36:50;6.70;;;2.50;;
40837;SDS011;29632;49.168;9.848;2023-10-08T07:39:18;5.97;;;2.73;;
40837;SDS011;29632;49.168;9.848;2023-10-08T07:42:00;5.37;;;2.17;;
40837;SDS011;29632;49.168;9.848;2023-10-08T07:44:30;6.57;;;2.90;;
40837;SDS011;29632;49.168;9.848;2023-10-08T07:46:56;5.77;;;2.60;;
40837;SDS011;29632;49.168;9.848;2023-10-08T07:49:23;8.43;;;2.80;;
40837;SDS011;29632;49.168;9.848;2023-10-08T07:51:50;7.83;;;2.93;;
40837;SDS011;29632;49.168;9.848;2023-10-08T07:54:23;9.73;;;3.27;;
40837;SDS011;29632;49.168;9.848;2023-10-08T07:56:52;6.23;;;2.77;;
40837;SDS011;29632;49.168;9.848;2023-10-08T07:59:25;7.03;;;2.93;;
40837;SDS011;29632;49.168;9.848;2023-10-08T08:01:50;5.43;;;2.83;;
40837;SDS011;29632;49.168;9.848;2023-10-08T08:04:17;6.37;;;2.60;;
40837;SDS011;29632;49.168;9.848;2023-10-08T08:06:49;8.00;;;2.67;;
40837;SDS011;29632;49.168;9.848;2023-10-08T08:09:16;7.17;;;2.70;;
40837;SDS011;29632;49.168;9.848;2023-10-08T08:11:44;4.83;;;3.10;;
40837;SDS011;29632;49.168;9.848;2023-10-08T08:14:14;6.73;;;2.87;;
40837;SDS011;29632;49.168;9.848;2023-10-08T08:16:49;7.60;;;3.20;;
40837;SDS011;29632;49.168;9.848;2023-10-08T08:19:15;4.97;;;2.60;;
40837;SDS011;29632;49.168;9.848;2023-10-08T08:21:45;4.57;;;2.93;;
40837;SDS011;29632;49.168;9.848;2023-10-08T08:24:12;5.70;;;3.23;;
40837;SDS011;29632;49.168;9.848;2023-10-08T08:26:38;6.53;;;2.93;;
40837;SDS011;29632;49.168;9.848;2023-10-08T08:29:05;6.13;;;3.10;;
40837;SDS011;29632;49.168;9.848;2023-10-08T08:31:34;5.53;;;2.97;;
40837;SDS011;29632;49.168;9.848;2023-10-08T08:34:01;6.77;;;2.93;;
40837;SDS011;29632;49.168;9.848;2023-10-08T08:36:33;5.10;;;3.07;;
40837;SDS011;29632;49.168;9.848;2023-10-08T08:38:59;6.43;;;3.27;;
40837;SDS011;29632;49.168;9.848;2023-10-08T08:41:25;6.33;;;3.10;;
40837;SDS011;29632;49.168;9.848;2023-10-08T08:43:52;7.20;;;3.30;;
40837;SDS011;29632;49.168;9.848;2023-10-08T08:46:41;7.30;;;3.97;;
40837;SDS011;29632;49.168;9.848;2023-10-08T08:49:08;5.73;;;3.00;;
40837;SDS011;29632;49.168;9.848;2023-10-08T08:51:34;7.03;;;2.90;;
40837;SDS011;29632;49.168;9.848;2023-10-08T08:54:04;6.40;;;3.00;;
40837;SDS011;29632;49.168;9.848;2023-10-08T08:56:33;7.33;;;2.70;;
40837;SDS011;29632;49.168;9.848;2023-10-08T08:59:04;5.53;;;2.72;;
40837;SDS011;29632;49.168;9.848;2023-10-08T09:01:30;5.17;;;3.00;;
40837;SDS011;29632;49.168;9.848;2023-10-08T09:04:04;8.70;;;3.60;;
40837;SDS011;29632;49.168;9.848;2023-10-08T09:06:32;6.90;;;3.13;;
40837;SDS011;29632;49.168;9.848;2023-10-08T09:09:00;5.47;;;3.07;;
40837;SDS011;29632;49.168;9.848;2023-10-08T09:11:44;7.13;;;3.27;;
40837;SDS011;29632;49.168;9.848;2023-10-08T09:14:10;5.73;;;2.87;;
40837;SDS011;29632;49.168;9.848;2023-10-08T09:16:36;7.77;;;2.90;;
40837;SDS011;29632;49.168;9.848;2023-10-08T09:19:02;4.93;;;2.67;;
40837;SDS011;29632;49.168;9.848;2023-10-08T09:21:29;6.57;;;3.50;;
40837;SDS011;29632;49.168;9.848;2023-10-08T09:23:55;11.10;;;4.20;;
40837;SDS011;29632;49.168;9.848;2023-10-08T09:26:24;5.83;;;2.83;;
40837;SDS011;29632;49.168;9.848;2023-10-08T09:28:54;6.20;;;3.30;;
40837;SDS011;29632;49.168;9.848;2023-10-08T09:31:22;4.80;;;2.83;;
40837;SDS011;29632;49.168;9.848;2023-10-08T09:33:55;6.60;;;3.30;;
40837;SDS011;29632;49.168;9.848;2023-10-08T09:36:22;9.40;;;3.13;;
40837;SDS011;29632;49.168;9.848;2023-10-08T09:38:58;7.43;;;4.27;;
40837;SDS011;29632;49.168;9.848;2023-10-08T09:41:30;9.10;;;3.40;;
40837;SDS011;29632;49.168;9.848;2023-10-08T09:44:00;10.30;;;3.23;;
40837;SDS011;29632;49.168;9.848;2023-10-08T09:46:32;7.20;;;3.17;;
40837;SDS011;29632;49.168;9.848;2023-10-08T09:49:00;4.93;;;2.43;;
40837;SDS011;29632;49.168;9.848;2023-10-08T09:51:28;5.27;;;2.63;;
40837;SDS011;29632;49.168;9.848;2023-10-08T09:54:10;4.80;;;2.53;;
40837;SDS011;29632;49.168;9.848;2023-10-08T09:56:40;6.10;;;3.07;;
40837;SDS011;29632;49.168;9.848;2023-10-08T09:59:08;5.73;;;3.17;;
40837;SDS011;29632;49.168;9.848;2023-10-08T10:01:35;6.67;;;3.23;;
40837;SDS011;29632;49.168;9.848;2023-10-08T10:04:10;7.63;;;2.70;;
40837;SDS011;29632;49.168;9.848;2023-10-08T10:06:37;11.80;;;2.93;;
40837;SDS011;29632;49.168;9.848;2023-10-08T10:09:04;7.20;;;3.53;;
40837;SDS011;29632;49.168;9.848;2023-10-08T10:11:40;6.57;;;2.70;;
40837;SDS011;29632;49.168;9.848;2023-10-08T10:14:14;7.73;;;3.10;;
40837;SDS011;29632;49.168;9.848;2023-10-08T10:16:39;8.70;;;3.77;;
40837;SDS011;29632;49.168;9.848;2023-10-08T10:19:06;6.30;;;3.40;;
40837;SDS011;29632;49.168;9.848;2023-10-08T10:21:43;7.77;;;3.87;;
40837;SDS011;29632;49.168;9.848;2023-10-08T10:24:32;6.90;;;3.87;;
40837;SDS011;29632;49.168;9.848;2023-10-08T10:27:13;5.83;;;3.10;;
40837;SDS011;29632;49.168;9.848;2023-10-08T10:29:40;7.20;;;3.42;;
40837;SDS011;29632;49.168;9.848;2023-10-08T10:32:12;6.30;;;3.60;;
40837;SDS011;29632;49.168;9.848;2023-10-08T10:34:40;7.50;;;3.70;;
40837;SDS011;29632;49.168;9.848;2023-10-08T10:37:08;5.77;;;3.30;;
40837;SDS011;29632;49.168;9.848;2023-10-08T10:39:49;9.70;;;4.10;;
40837;SDS011;29632;49.168;9.848;2023-10-08T10:42:26;8.93;;;4.73;;
40837;SDS011;29632;49.168;9.848;2023-10-08T10:44:53;7.53;;;3.87;;
40837;SDS011;29632;49.168;9.848;2023-10-08T10:47:21;6.17;;;3.40;;
40837;SDS011;29632;49.168;9.848;2023-10-08T10:49:48;5.67;;;2.70;;
40837;SDS011;29632;49.168;9.848;2023-10-08T10:52:25;6.50;;;2.93;;
40837;SDS011;29632;49.168;9.848;2023-10-08T10:55:19;7.23;;;2.93;;
40837;SDS011;29632;49.168;9.848;2023-10-08T10:57:48;5.83;;;2.60;;
40837;SDS011;29632;49.168;9.848;2023-10-08T11:00:31;6.53;;;3.07;;
40837;SDS011;29632;49.168;9.848;2023-10-08T11:02:57;8.03;;;3.23;;
40837;SDS011;29632;49.168;9.848;2023-10-08T11:08:02;5.90;;;2.80;;
40837;SDS011;29632;49.168;9.848;2023-10-08T11:10:31;6.07;;;3.17;;
40837;SDS011;29632;49.168;9.848;2023-10-08T11:12:58;6.93;;;3.00;;
40837;SDS011;29632;49.168;9.848;2023-10-08T11:15:28;5.70;;;2.88;;
40837;SDS011;29632;49.168;9.848;2023-10-08T11:18:11;5.50;;;2.70;;
40837;SDS011;29632;49.168;9.848;2023-10-08T11:20:40;7.37;;;3.30;;
40837;SDS011;29632;49.168;9.848;2023-10-08T11:23:09;7.20;;;3.10;;
40837;SDS011;29632;49.168;9.848;2023-10-08T11:26:02;6.37;;;2.87;;
40837;SDS011;29632;49.168;9.848;2023-10-08T11:28:34;5.57;;;3.03;;
40837;SDS011;29632;49.168;9.848;2023-10-08T11:31:11;5.70;;;2.90;;
40837;SDS011;29632;49.168;9.848;2023-10-08T11:33:44;6.03;;;2.40;;
40837;SDS011;29632;49.168;9.848;2023-10-08T11:36:21;4.67;;;2.53;;
40837;SDS011;29632;49.168;9.848;2023-10-08T11:38:53;10.23;;;4.03;;
40837;SDS011;29632;49.168;9.848;2023-10-08T11:41:26;7.20;;;3.00;;
40837;SDS011;29632;49.168;9.848;2023-10-08T11:43:56;19.37;;;4.03;;
40837;SDS011;29632;49.168;9.848;2023-10-08T11:46:23;6.03;;;3.07;;
40837;SDS011;29632;49.168;9.848;2023-10-08T11:48:57;7.50;;;3.07;;
40837;SDS011;29632;49.168;9.848;2023-10-08T11:51:30;6.77;;;2.50;;
40837;SDS011;29632;49.168;9.848;2023-10-08T11:54:02;5.33;;;2.67;;
40837;SDS011;29632;49.168;9.848;2023-10-08T11:56:31;5.90;;;2.53;;
40837;SDS011;29632;49.168;9.848;2023-10-08T11:58:58;8.27;;;3.37;;
40837;SDS011;29632;49.168;9.848;2023-10-08T12:01:30;5.80;;;3.17;;
40837;SDS011;29632;49.168;9.848;2023-10-08T12:04:00;7.10;;;2.97;;
40837;SDS011;29632;49.168;9.848;2023-10-08T12:06:26;6.07;;;2.57;;
40837;SDS011;29632;49.168;9.848;2023-10-08T12:08:55;4.27;;;2.87;;
40837;SDS011;29632;49.168;9.848;2023-10-08T12:11:24;8.00;;;3.47;;
40837;SDS011;29632;49.168;9.848;2023-10-08T12:13:56;6.13;;;2.43;;
40837;SDS011;29632;49.168;9.848;2023-10-08T12:16:28;8.13;;;2.92;;
40837;SDS011;29632;49.168;9.848;2023-10-08T12:19:00;7.50;;;3.22;;
40837;SDS011;29632;49.168;9.848;2023-10-08T12:21:31;5.10;;;2.85;;
40837;SDS011;29632;49.168;9.848;2023-10-08T12:23:57;7.20;;;3.10;;
40837;SDS011;29632;49.168;9.848;2023-10-08T12:26:23;8.05;;;3.25;;
40837;SDS011;29632;49.168;9.848;2023-10-08T12:28:50;7.85;;;3.50;;
40837;SDS011;29632;49.168;9.848;2023-10-08T12:31:18;7.75;;;3.25;;
40837;SDS011;29632;49.168;9.848;2023-10-08T12:33:47;7.70;;;3.17;;
40837;SDS011;29632;49.168;9.848;2023-10-08T12:36:16;6.83;;;2.93;;
40837;SDS011;29632;49.168;9.848;2023-10-08T12:38:42;6.13;;;2.97;;
40837;SDS011;29632;49.168;9.848;2023-10-08T12:41:09;8.02;;;3.35;;
40837;SDS011;29632;49.168;9.848;2023-10-08T12:43:42;7.88;;;3.50;;
40837;SDS011;29632;49.168;9.848;2023-10-08T12:46:17;5.32;;;2.67;;
40837;SDS011;29632;49.168;9.848;2023-10-08T12:48:49;8.68;;;4.00;;
40837;SDS011;29632;49.168;9.848;2023-10-08T12:51:22;5.00;;;2.65;;
40837;SDS011;29632;49.168;9.848;2023-10-08T12:53:50;7.20;;;3.75;;
40837;SDS011;29632;49.168;9.848;2023-10-08T12:56:23;11.73;;;3.53;;
40837;SDS011;29632;49.168;9.848;2023-10-08T12:59:03;4.80;;;2.63;;
40837;SDS011;29632;49.168;9.848;2023-10-08T13:01:32;5.80;;;2.67;;
40837;SDS011;29632;49.168;9.848;2023-10-08T13:04:06;5.97;;;3.20;;
40837;SDS011;29632;49.168;9.848;2023-10-08T13:06:32;8.25;;;3.13;;
40837;SDS011;29632;49.168;9.848;2023-10-08T13:09:02;8.88;;;3.00;;
40837;SDS011;29632;49.168;9.848;2023-10-08T13:11:37;7.40;;;3.53;;
40837;SDS011;29632;49.168;9.848;2023-10-08T13:14:04;8.65;;;3.10;;
40837;SDS011;29632;49.168;9.848;2023-10-08T13:16:30;7.53;;;3.17;;
40837;SDS011;29632;49.168;9.848;2023-10-08T13:18:57;4.90;;;2.50;;
40837;SDS011;29632;49.168;9.848;2023-10-08T13:21:24;6.43;;;3.30;;
40837;SDS011;29632;49.168;9.848;2023-10-08T13:23:52;10.75;;;3.85;;
40837;SDS011;29632;49.168;9.848;2023-10-08T13:26:17;7.53;;;3.00;;
40837;SDS011;29632;49.168;9.848;2023-10-08T13:31:13;9.10;;;2.78;;
40837;SDS011;29632;49.168;9.848;2023-10-08T13:33:41;7.28;;;3.33;;
40837;SDS011;29632;49.168;9.848;2023-10-08T13:36:13;7.65;;;2.90;;
40837;SDS011;29632;49.168;9.848;2023-10-08T13:38:40;10.73;;;3.22;;
40837;SDS011;29632;49.168;9.848;2023-10-08T13:41:07;6.53;;;3.08;;
40837;SDS011;29632;49.168;9.848;2023-10-08T13:43:49;10.80;;;3.72;;
40837;SDS011;29632;49.168;9.848;2023-10-08T13:46:27;5.95;;;3.00;;
40837;SDS011;29632;49.168;9.848;2023-10-08T13:48:52;5.60;;;2.75;;
40837;SDS011;29632;49.168;9.848;2023-10-08T13:51:19;7.00;;;3.47;;
40837;SDS011;29632;49.168;9.848;2023-10-08T13:53:50;8.27;;;4.38;;
40837;SDS011;29632;49.168;9.848;2023-10-08T13:56:31;9.15;;;3.65;;
40837;SDS011;29632;49.168;9.848;2023-10-08T13:58:58;6.32;;;3.17;;
40837;SDS011;29632;49.168;9.848;2023-10-08T14:01:37;8.38;;;3.05;;
40837;SDS011;29632;49.168;9.848;2023-10-08T14:04:16;6.60;;;2.50;;
40837;SDS011;29632;49.168;9.848;2023-10-08T14:06:45;4.80;;;2.83;;
40837;SDS011;29632;49.168;9.848;2023-10-08T14:09:19;6.05;;;2.70;;
40837;SDS011;29632;49.168;9.848;2023-10-08T14:12:01;9.18;;;3.40;;
40837;SDS011;29632;49.168;9.848;2023-10-08T14:14:29;8.13;;;3.38;;
40837;SDS011;29632;49.168;9.848;2023-10-08T14:16:55;8.02;;;3.00;;
40837;SDS011;29632;49.168;9.848;2023-10-08T14:19:25;7.13;;;3.20;;
40837;SDS011;29632;49.168;9.848;2023-10-08T14:22:01;7.53;;;3.00;;
40837;SDS011;29632;49.168;9.848;2023-10-08T14:24:33;9.80;;;3.10;;
40837;SDS011;29632;49.168;9.848;2023-10-08T14:27:00;7.50;;;2.95;;
40837;SDS011;29632;49.168;9.848;2023-10-08T14:29:34;8.50;;;3.30;;
40837;SDS011;29632;49.168;9.848;2023-10-08T14:32:11;10.25;;;3.10;;
40837;SDS011;29632;49.168;9.848;2023-10-08T14:34:37;11.43;;;3.38;;
40837;SDS011;29632;49.168;9.848;2023-10-08T14:37:12;14.13;;;3.60;;
40837;SDS011;29632;49.168;9.848;2023-10-08T14:39:57;7.25;;;3.25;;
40837;SDS011;29632;49.168;9.848;2023-10-08T14:42:41;8.27;;;3.03;;
40837;SDS011;29632;49.168;9.848;2023-10-08T14:45:24;11.10;;;3.80;;
40837;SDS011;29632;49.168;9.848;2023-10-08T14:47:52;11.30;;;4.03;;
40837;SDS011;29632;49.168;9.848;2023-10-08T14:50:23;7.93;;;2.88;;
40837;SDS011;29632;49.168;9.848;2023-10-08T14:55:20;10.68;;;3.25;;
40837;SDS011;29632;49.168;9.848;2023-10-08T14:57:47;9.25;;;3.55;;
40837;SDS011;29632;49.168;9.848;2023-10-08T15:00:18;7.40;;;3.60;;
40837;SDS011;29632;49.168;9.848;2023-10-08T15:02:58;11.40;;;3.83;;
40837;SDS011;29632;49.168;9.848;2023-10-08T15:05:27;5.93;;;3.10;;
40837;SDS011;29632;49.168;9.848;2023-10-08T15:07:54;7.35;;;3.53;;
40837;SDS011;29632;49.168;9.848;2023-10-08T15:10:20;6.40;;;3.63;;
40837;SDS011;29632;49.168;9.848;2023-10-08T15:12:46;7.03;;;3.30;;
40837;SDS011;29632;49.168;9.848;2023-10-08T15:15:12;6.72;;;2.97;;
40837;SDS011;29632;49.168;9.848;2023-10-08T15:17:42;7.05;;;2.85;;
40837;SDS011;29632;49.168;9.848;2023-10-08T15:20:13;8.77;;;4.32;;
40837;SDS011;29632;49.168;9.848;2023-10-08T15:22:41;10.25;;;4.45;;
40837;SDS011;29632;49.168;9.848;2023-10-08T15:25:09;8.98;;;4.07;;
40837;SDS011;29632;49.168;9.848;2023-10-08T15:27:36;10.93;;;4.00;;
40837;SDS011;29632;49.168;9.848;2023-10-08T15:30:09;9.98;;;4.32;;
40837;SDS011;29632;49.168;9.848;2023-10-08T15:32:37;8.23;;;3.60;;